createdAt,value
2023-02-03T00:03:05.095Z,8.50
2023-02-03T00:07:56.927Z,8.27
2023-02-03T00:12:50.813Z,7.20
2023-02-03T00:17:42.696Z,6.32
2023-02-03T00:22:34.421Z,6.78
2023-02-03T00:27:26.581Z,6.85
2023-02-03T00:32:18.550Z,6.40
2023-02-03T00:37:13.002Z,6.28
2023-02-03T00:42:06.019Z,7.00
2023-02-03T00:46:58.008Z,6.15
2023-02-03T00:51:50.442Z,6.20
2023-02-03T00:56:42.313Z,6.78
2023-02-03T01:01:34.837Z,7.90
2023-02-03T01:06:27.654Z,6.40
2023-02-03T01:11:24.767Z,5.95
2023-02-03T01:16:19.222Z,6.47
2023-02-03T01:21:17.368Z,6.97
2023-02-03T01:26:12.674Z,6.43
2023-02-03T01:31:15.671Z,7.60
2023-02-03T01:36:09.541Z,8.40
2023-02-03T01:41:01.310Z,8.48
2023-02-03T01:45:53.054Z,8.95
2023-02-03T01:50:44.854Z,9.15
2023-02-03T01:55:40.918Z,10.60
2023-02-03T02:00:32.778Z,9.35
2023-02-03T02:05:52.200Z,9.85
2023-02-03T02:10:44.866Z,9.48
2023-02-03T02:16:15.150Z,8.80
2023-02-03T02:21:40.307Z,9.38
2023-02-03T02:27:01.425Z,8.18
2023-02-03T02:32:17.920Z,5.97
2023-02-03T02:37:18.687Z,6.25
2023-02-03T02:42:16.670Z,7.13
2023-02-03T02:47:16.035Z,6.13
2023-02-03T02:52:09.898Z,5.72
2023-02-03T02:57:05.210Z,5.38
2023-02-03T03:01:57.464Z,4.85
2023-02-03T03:06:55.122Z,5.03
2023-02-03T03:11:54.631Z,4.10
2023-02-03T03:16:57.591Z,4.32
2023-02-03T03:21:55.047Z,4.95
2023-02-03T03:26:53.682Z,4.80
2023-02-03T03:37:03.200Z,4.20
2023-02-03T03:42:04.794Z,4.22
2023-02-03T03:47:23.313Z,3.90
2023-02-03T03:52:20.225Z,3.30
2023-02-03T03:57:26.160Z,2.92
2023-02-03T04:02:20.178Z,2.78
2023-02-03T04:07:15.550Z,2.55
2023-02-03T04:12:22.769Z,3.33
2023-02-03T04:17:14.523Z,2.63
2023-02-03T04:22:06.705Z,2.38
2023-02-03T04:26:58.479Z,2.58
2023-02-03T04:31:50.208Z,2.03
2023-02-03T04:36:41.939Z,1.65
2023-02-03T04:41:33.717Z,1.90
2023-02-03T04:46:25.477Z,1.85
2023-02-03T04:51:17.238Z,1.83
2023-02-03T04:56:09.323Z,1.65
2023-02-03T05:01:08.302Z,1.50
2023-02-03T05:06:00.179Z,1.88
2023-02-03T05:10:51.906Z,2.20
2023-02-03T05:15:43.612Z,2.00
2023-02-03T05:20:35.333Z,1.73
2023-02-03T05:25:27.498Z,1.63
2023-02-03T05:30:19.365Z,1.83
2023-02-03T05:35:11.097Z,2.00
2023-02-03T05:40:21.325Z,1.70
2023-02-03T05:45:13.036Z,2.00
2023-02-03T05:50:05.046Z,2.08
2023-02-03T05:54:56.743Z,2.20
2023-02-03T05:59:49.899Z,2.00
2023-02-03T06:04:41.698Z,2.20
2023-02-03T06:09:33.521Z,2.05
2023-02-03T06:14:25.287Z,2.38
2023-02-03T06:19:16.987Z,2.53
2023-02-03T06:24:08.766Z,2.78
2023-02-03T06:29:00.434Z,2.10
2023-02-03T06:33:52.142Z,2.58
2023-02-03T06:38:43.878Z,2.95
2023-02-03T06:43:36.369Z,3.78
2023-02-03T06:48:28.131Z,4.93
2023-02-03T06:53:19.890Z,6.22
2023-02-03T06:58:11.585Z,6.25
2023-02-03T07:03:03.516Z,6.97
2023-02-03T07:07:55.390Z,5.85
2023-02-03T07:12:47.202Z,6.28
2023-02-03T07:17:39.421Z,6.22
2023-02-03T07:22:31.133Z,6.80
2023-02-03T07:27:22.923Z,5.70
2023-02-03T07:32:14.700Z,6.22
2023-02-03T07:37:06.729Z,6.75
2023-02-03T07:41:58.654Z,6.47
2023-02-03T07:46:52.472Z,7.72
2023-02-03T07:51:47.142Z,6.18
2023-02-03T07:56:38.885Z,7.68
2023-02-03T08:01:31.566Z,7.47
2023-02-03T08:06:23.555Z,8.50
2023-02-03T08:11:15.266Z,7.82
2023-02-03T08:16:07.379Z,8.18
2023-02-03T08:20:59.275Z,7.05
2023-02-03T08:25:54.023Z,7.90
2023-02-03T08:30:46.171Z,8.52
2023-02-03T08:35:38.345Z,8.82
2023-02-03T08:40:30.563Z,8.98
2023-02-03T08:45:22.562Z,9.65
2023-02-03T08:50:14.500Z,10.32
2023-02-03T08:55:06.851Z,13.85
2023-02-03T08:59:58.697Z,13.18
2023-02-03T09:04:50.626Z,13.73
2023-02-03T09:09:42.831Z,18.88
2023-02-03T09:14:35.409Z,20.83
2023-02-03T09:19:27.209Z,18.75
2023-02-03T09:24:19.183Z,20.83
2023-02-03T09:29:11.483Z,22.17
2023-02-03T09:34:03.513Z,23.33
2023-02-03T09:38:57.201Z,20.80
2023-02-03T09:44:22.462Z,24.42
2023-02-03T09:49:19.664Z,21.55
2023-02-03T09:54:40.103Z,21.83
2023-02-03T09:59:33.664Z,19.90
2023-02-03T10:04:40.202Z,20.35
2023-02-03T10:09:44.386Z,20.88
2023-02-03T10:15:02.183Z,21.08
2023-02-03T10:20:06.585Z,35.92
2023-02-03T10:25:05.854Z,47.47
2023-02-03T10:30:18.219Z,46.70
2023-02-03T10:35:14.161Z,50.50
2023-02-03T10:40:06.196Z,51.10
2023-02-03T10:44:59.787Z,48.78
2023-02-03T10:49:53.934Z,50.50
2023-02-03T10:54:45.775Z,52.53
2023-02-03T10:59:42.686Z,59.08
2023-02-03T11:04:35.076Z,60.72
2023-02-03T11:09:42.184Z,62.85
2023-02-03T11:14:39.640Z,58.47
2023-02-03T11:19:31.573Z,62.80
2023-02-03T11:24:23.366Z,61.25
2023-02-03T11:29:28.576Z,67.10
2023-02-03T11:34:26.308Z,68.38
2023-02-03T11:39:35.791Z,62.93
2023-02-03T11:44:31.487Z,67.55
2023-02-03T11:49:26.484Z,64.35
2023-02-03T11:54:30.514Z,65.18
2023-02-03T11:59:35.957Z,69.90
2023-02-03T12:04:36.764Z,66.78
2023-02-03T12:09:56.265Z,69.97
2023-02-03T12:15:00.043Z,62.80
2023-02-03T12:20:24.503Z,60.85
2023-02-03T12:25:33.151Z,68.68
2023-02-03T12:30:30.291Z,59.50
2023-02-03T12:35:27.978Z,64.00
2023-02-03T12:40:19.674Z,62.63
2023-02-03T12:45:20.266Z,60.95
2023-02-03T12:50:17.515Z,59.38
2023-02-03T12:55:18.669Z,60.40
2023-02-03T13:00:44.740Z,59.10
2023-02-03T13:05:41.873Z,58.65
2023-02-03T13:10:48.937Z,60.50
2023-02-03T13:15:45.704Z,56.03
2023-02-03T13:20:37.583Z,58.95
2023-02-03T13:25:38.577Z,56.58
2023-02-03T13:30:42.477Z,56.47
2023-02-03T13:36:09.868Z,54.88
2023-02-03T13:41:05.659Z,49.70
2023-02-03T13:45:58.112Z,54.08
2023-02-03T13:51:01.891Z,57.80
2023-02-03T13:55:57.533Z,56.67
2023-02-03T14:00:52.354Z,53.85
2023-02-03T14:05:48.960Z,54.42
2023-02-03T14:10:40.767Z,53.63
2023-02-03T14:15:33.992Z,54.97
2023-02-03T14:20:25.872Z,53.42
2023-02-03T14:25:19.316Z,51.05
2023-02-03T14:30:13.927Z,49.00
2023-02-03T14:35:17.044Z,47.67
2023-02-03T14:40:27.776Z,48.83
2023-02-03T14:45:47.598Z,48.92
2023-02-03T14:51:18.233Z,46.10
2023-02-03T14:56:21.920Z,50.85
2023-02-03T15:01:35.508Z,46.72
2023-02-03T15:06:38.320Z,46.88
2023-02-03T15:11:34.354Z,47.83
2023-02-03T15:16:27.364Z,46.08
2023-02-03T15:21:20.398Z,46.67
2023-02-03T15:26:19.996Z,44.67
2023-02-03T15:31:29.110Z,54.53
2023-02-03T15:36:27.548Z,52.17
2023-02-03T15:41:24.690Z,53.03
2023-02-03T15:46:24.504Z,49.72
2023-02-03T15:51:22.264Z,50.35
2023-02-03T15:56:22.049Z,52.83
2023-02-03T16:01:18.040Z,54.53
2023-02-03T16:06:39.379Z,53.42
2023-02-03T16:11:39.413Z,53.72
2023-02-03T16:16:40.189Z,47.58
2023-02-03T16:21:37.948Z,52.80
2023-02-03T16:26:31.978Z,52.03
2023-02-03T16:31:42.515Z,53.00
2023-02-03T16:36:57.908Z,51.85
2023-02-03T16:42:08.046Z,48.58
2023-02-03T16:47:18.639Z,50.22
2023-02-03T16:52:10.442Z,48.10
2023-02-03T16:57:02.202Z,47.78
2023-02-03T17:01:54.109Z,49.65
2023-02-03T17:06:46.057Z,51.97
2023-02-03T17:11:37.863Z,49.47
2023-02-03T17:16:30.660Z,49.42
2023-02-03T17:21:25.724Z,51.55
2023-02-03T17:26:18.273Z,56.25
2023-02-03T17:31:18.391Z,63.28
2023-02-03T17:36:15.651Z,55.78
2023-02-03T17:56:35.996Z,52.83
2023-02-03T18:01:28.360Z,52.03
2023-02-03T18:06:21.750Z,50.05
2023-02-03T18:11:15.029Z,51.72
2023-02-03T18:16:08.337Z,53.63
2023-02-03T18:21:02.625Z,59.25
2023-02-03T18:25:55.508Z,54.92
2023-02-03T18:30:47.380Z,62.67
2023-02-03T18:35:39.332Z,62.13
2023-02-03T18:40:31.997Z,64.35
2023-02-03T18:45:23.981Z,58.20
2023-02-03T18:50:15.902Z,58.05
2023-02-03T18:55:08.287Z,57.35
2023-02-03T19:00:00.371Z,58.67
2023-02-03T19:04:52.669Z,58.38
2023-02-03T19:09:44.705Z,59.78
2023-02-03T19:14:36.898Z,63.00
2023-02-03T19:19:28.748Z,60.95
2023-02-03T19:24:20.849Z,61.78
2023-02-03T19:29:12.674Z,58.35
2023-02-03T19:34:04.480Z,56.97
2023-02-03T19:38:57.176Z,55.13
2023-02-03T19:43:52.213Z,54.40
2023-02-03T19:48:44.013Z,55.40
2023-02-03T19:53:36.726Z,54.55
2023-02-03T19:58:28.606Z,52.63
2023-02-03T20:03:20.837Z,50.78
2023-02-03T20:08:14.586Z,50.63
2023-02-03T20:13:06.434Z,46.88
2023-02-03T20:17:58.327Z,45.45
2023-02-03T20:22:50.177Z,36.08
2023-02-03T20:27:42.138Z,31.77
2023-02-03T20:32:34.156Z,19.85
2023-02-03T20:37:26.131Z,8.75
2023-02-03T20:42:18.207Z,13.32
2023-02-03T20:47:15.023Z,9.23
2023-02-03T20:52:12.670Z,7.93
2023-02-03T20:57:11.987Z,9.20
2023-02-03T21:02:10.881Z,9.95
2023-02-03T21:07:14.887Z,8.75
2023-02-03T21:12:13.391Z,7.07
2023-02-03T21:17:24.711Z,4.43
2023-02-03T21:22:22.086Z,4.82
2023-02-03T21:27:34.222Z,4.05
2023-02-03T21:32:34.153Z,3.42
2023-02-03T21:37:40.383Z,4.05
2023-02-03T21:42:42.920Z,3.83
2023-02-03T21:47:34.711Z,3.78
2023-02-03T21:52:26.762Z,3.17
2023-02-03T21:57:19.547Z,3.25
2023-02-03T22:02:42.493Z,3.45
2023-02-03T22:07:34.735Z,3.00
2023-02-03T22:12:26.541Z,3.42
2023-02-03T22:17:18.778Z,2.78
2023-02-03T22:22:10.562Z,3.05
2023-02-03T22:27:02.371Z,2.80
2023-02-03T22:31:54.319Z,3.00
2023-02-03T22:36:46.187Z,7.68
2023-02-03T22:41:37.922Z,6.45
2023-02-03T22:46:29.786Z,11.25
2023-02-03T22:51:21.751Z,23.25
2023-02-03T22:56:13.600Z,28.90
2023-02-03T23:01:05.734Z,34.95
2023-02-03T23:05:57.815Z,36.58
2023-02-03T23:10:49.675Z,36.25
2023-02-03T23:15:41.493Z,37.78
2023-02-03T23:20:33.659Z,40.47
2023-02-03T23:25:25.537Z,39.03
2023-02-03T23:30:17.352Z,47.28
2023-02-03T23:35:28.255Z,44.35
2023-02-03T23:40:20.137Z,47.08
2023-02-03T23:45:12.806Z,46.90
2023-02-03T23:50:04.752Z,42.55
2023-02-03T23:54:56.494Z,40.22
2023-02-03T23:59:48.221Z,39.28
